createdAt,value
2022-11-27T00:00:51.090Z,22.30
2022-11-27T00:03:20.500Z,26.80
2022-11-27T00:05:54.189Z,20.67
2022-11-27T00:08:22.106Z,22.73
2022-11-27T00:10:50.101Z,23.35
2022-11-27T00:13:18.108Z,21.48
2022-11-27T00:15:46.370Z,18.75
2022-11-27T00:18:14.288Z,18.58
2022-11-27T00:20:43.541Z,23.88
2022-11-27T00:23:11.442Z,26.63
2022-11-27T00:25:39.349Z,23.88
2022-11-27T00:28:07.256Z,22.13
2022-11-27T00:30:35.145Z,24.77
2022-11-27T00:33:03.059Z,20.88
2022-11-27T00:35:30.960Z,21.45
2022-11-27T00:38:00.217Z,21.17
2022-11-27T00:40:28.153Z,27.60
2022-11-27T00:42:56.064Z,21.27
2022-11-27T00:45:24.068Z,23.40
2022-11-27T00:47:51.935Z,23.85
2022-11-27T00:50:20.266Z,23.63
2022-11-27T00:52:48.201Z,22.08
2022-11-27T00:55:17.618Z,19.60
2022-11-27T00:57:45.454Z,21.15
2022-11-27T01:00:14.711Z,20.50
2022-11-27T01:02:42.705Z,21.67
2022-11-27T01:05:10.974Z,22.00
2022-11-27T01:07:38.946Z,19.30
2022-11-27T01:10:08.420Z,20.70
2022-11-27T01:12:37.673Z,23.08
2022-11-27T01:15:06.508Z,19.52
2022-11-27T01:17:34.440Z,22.23
2022-11-27T01:20:02.309Z,18.73
2022-11-27T01:22:30.218Z,23.42
2022-11-27T01:24:58.139Z,20.70
2022-11-27T01:27:26.089Z,18.35
2022-11-27T01:29:55.361Z,17.13
2022-11-27T01:32:23.254Z,21.52
2022-11-27T01:34:51.192Z,17.80
2022-11-27T01:37:19.473Z,18.25
2022-11-27T01:39:47.372Z,26.55
2022-11-27T01:42:15.257Z,22.67
2022-11-27T01:44:53.326Z,18.70
2022-11-27T01:47:35.375Z,18.20
2022-11-27T01:50:10.479Z,19.98
2022-11-27T01:52:41.567Z,19.23
2022-11-27T01:55:18.901Z,19.48
2022-11-27T01:57:49.924Z,22.15
2022-11-27T02:00:20.191Z,18.70
2022-11-27T02:02:50.151Z,21.95
2022-11-27T02:05:20.424Z,16.58
2022-11-27T02:07:49.218Z,20.38
2022-11-27T02:10:17.877Z,22.02
2022-11-27T02:12:54.370Z,22.95
2022-11-27T02:15:30.424Z,20.38
2022-11-27T02:18:09.301Z,18.23
2022-11-27T02:20:45.816Z,17.58
2022-11-27T02:23:49.044Z,16.00
2022-11-27T02:26:39.286Z,17.98
2022-11-27T02:29:10.580Z,17.25
2022-11-27T02:31:44.240Z,16.30
2022-11-27T02:34:23.883Z,19.67
2022-11-27T02:37:01.073Z,17.88
2022-11-27T02:39:35.866Z,15.38
2022-11-27T02:42:12.825Z,17.38
2022-11-27T02:44:48.425Z,19.00
2022-11-27T02:47:16.591Z,16.55
2022-11-27T02:49:45.901Z,15.52
2022-11-27T02:52:17.981Z,16.67
2022-11-27T02:54:49.050Z,20.25
2022-11-27T02:57:18.533Z,17.52
2022-11-27T02:59:48.570Z,14.35
2022-11-27T03:02:20.233Z,20.30
2022-11-27T03:04:52.041Z,19.08
2022-11-27T03:07:35.149Z,16.10
2022-11-27T03:10:10.955Z,21.52
2022-11-27T03:12:38.922Z,18.83
2022-11-27T03:15:09.378Z,17.40
2022-11-27T03:17:51.557Z,14.93
2022-11-27T03:20:22.939Z,18.63
2022-11-27T03:22:50.913Z,19.00
2022-11-27T03:25:18.825Z,16.88
2022-11-27T03:27:51.132Z,14.77
2022-11-27T03:30:20.486Z,15.15
2022-11-27T03:32:48.747Z,17.15
2022-11-27T03:35:21.016Z,12.85
2022-11-27T03:37:49.472Z,17.33
2022-11-27T03:40:18.896Z,15.85
2022-11-27T03:42:57.329Z,13.52
2022-11-27T03:45:33.116Z,15.57
2022-11-27T03:48:15.652Z,17.85
2022-11-27T03:50:54.316Z,17.63
2022-11-27T03:53:28.203Z,15.93
2022-11-27T03:56:08.412Z,14.45
2022-11-27T03:58:41.627Z,19.53
2022-11-27T04:01:15.036Z,16.35
2022-11-27T04:03:42.983Z,15.20
2022-11-27T04:06:11.702Z,14.65
2022-11-27T04:08:40.103Z,19.10
2022-11-27T04:11:08.804Z,16.85
2022-11-27T04:13:37.115Z,19.90
2022-11-27T04:16:05.461Z,15.52
2022-11-27T04:18:34.783Z,20.48
2022-11-27T04:21:02.692Z,20.23
2022-11-27T04:23:30.545Z,16.58
2022-11-27T04:25:58.464Z,19.45
2022-11-27T04:28:26.326Z,16.30
2022-11-27T04:30:55.818Z,19.38
2022-11-27T04:33:24.385Z,17.00
2022-11-27T04:35:54.348Z,16.77
2022-11-27T04:38:22.990Z,16.48
2022-11-27T04:40:53.272Z,19.10
2022-11-27T04:43:21.380Z,17.98
2022-11-27T04:45:49.311Z,16.10
2022-11-27T04:48:17.217Z,15.18
2022-11-27T04:50:45.241Z,22.45
2022-11-27T04:53:14.472Z,15.30
2022-11-27T04:55:42.366Z,15.05
2022-11-27T04:58:10.275Z,17.98
2022-11-27T05:00:38.274Z,14.60
2022-11-27T05:03:06.276Z,12.30
2022-11-27T05:05:34.234Z,14.98
2022-11-27T05:08:02.252Z,18.10
2022-11-27T05:10:31.562Z,17.05
2022-11-27T05:12:59.485Z,16.42
2022-11-27T05:15:27.417Z,15.05
2022-11-27T05:17:55.316Z,15.13
2022-11-27T05:20:23.225Z,14.38
2022-11-27T05:22:51.162Z,16.08
2022-11-27T05:25:19.088Z,14.95
2022-11-27T05:27:48.883Z,13.77
2022-11-27T05:30:17.048Z,18.13
2022-11-27T05:32:44.961Z,10.95
2022-11-27T05:35:12.844Z,12.75
2022-11-27T05:37:40.737Z,12.45
2022-11-27T05:40:14.514Z,13.85
2022-11-27T05:42:42.409Z,13.20
2022-11-27T05:45:12.432Z,12.10
2022-11-27T05:47:40.340Z,16.88
2022-11-27T05:50:09.244Z,15.05
2022-11-27T05:52:37.257Z,16.50
2022-11-27T05:55:05.752Z,13.02
2022-11-27T05:57:33.688Z,13.68
2022-11-27T06:00:01.687Z,15.70
2022-11-27T06:02:31.537Z,15.93
2022-11-27T06:04:59.485Z,16.05
2022-11-27T06:07:27.430Z,18.30
2022-11-27T06:09:55.389Z,16.65
2022-11-27T06:12:23.245Z,16.20
2022-11-27T06:14:51.154Z,15.27
2022-11-27T06:17:19.085Z,15.63
2022-11-27T06:19:48.310Z,17.80
2022-11-27T06:22:16.238Z,14.70
2022-11-27T06:24:44.109Z,14.02
2022-11-27T06:27:12.047Z,15.15
2022-11-27T06:29:40.020Z,15.00
2022-11-27T06:32:08.051Z,15.35
2022-11-27T06:34:36.108Z,15.50
2022-11-27T06:37:10.410Z,18.38
2022-11-27T06:39:40.834Z,17.85
2022-11-27T06:42:08.751Z,14.68
2022-11-27T06:44:36.708Z,15.38
2022-11-27T06:47:04.595Z,16.13
2022-11-27T06:49:32.514Z,16.95
2022-11-27T06:52:00.461Z,13.35
2022-11-27T06:54:29.756Z,15.13
2022-11-27T06:56:58.424Z,14.95
2022-11-27T06:59:26.324Z,15.45
2022-11-27T07:01:54.376Z,16.10
2022-11-27T07:04:22.371Z,16.77
2022-11-27T07:06:50.567Z,17.08
2022-11-27T07:09:18.428Z,15.70
2022-11-27T07:11:47.713Z,17.13
2022-11-27T07:14:15.622Z,14.88
2022-11-27T07:16:43.596Z,15.70
2022-11-27T07:19:12.108Z,17.42
2022-11-27T07:21:40.458Z,17.58
2022-11-27T07:24:09.053Z,19.50
2022-11-27T07:26:36.938Z,13.43
2022-11-27T07:29:06.213Z,14.73
2022-11-27T07:31:34.425Z,16.15
2022-11-27T07:34:14.958Z,17.88
2022-11-27T07:36:48.368Z,19.77
2022-11-27T07:39:25.215Z,17.95
2022-11-27T07:42:16.772Z,19.20
2022-11-27T07:44:52.811Z,18.23
2022-11-27T07:47:20.896Z,17.27
2022-11-27T07:49:48.767Z,15.18
2022-11-27T07:52:16.675Z,16.50
2022-11-27T07:54:44.570Z,18.60
2022-11-27T07:57:12.639Z,18.30
2022-11-27T07:59:45.729Z,15.80
2022-11-27T08:02:16.873Z,13.60
2022-11-27T08:04:45.068Z,16.25
2022-11-27T08:07:13.236Z,15.40
2022-11-27T08:09:41.286Z,14.02
2022-11-27T08:12:09.204Z,15.25
2022-11-27T08:14:37.211Z,16.20
2022-11-27T08:17:05.136Z,14.30
2022-11-27T08:19:34.365Z,17.92
2022-11-27T08:22:02.304Z,16.75
2022-11-27T08:24:30.179Z,14.48
2022-11-27T08:26:58.093Z,15.82
2022-11-27T08:29:31.172Z,16.50
2022-11-27T08:32:01.905Z,16.65
2022-11-27T08:34:29.844Z,19.13
2022-11-27T08:36:59.134Z,18.13
2022-11-27T08:39:27.420Z,21.77
2022-11-27T08:41:55.510Z,21.15
2022-11-27T08:44:23.464Z,22.85
2022-11-27T08:46:51.373Z,25.75
2022-11-27T08:49:19.380Z,25.40
2022-11-27T08:51:47.271Z,23.83
2022-11-27T08:54:16.562Z,23.02
2022-11-27T08:56:44.569Z,23.98
2022-11-27T08:59:12.869Z,22.02
2022-11-27T09:01:40.870Z,20.70
2022-11-27T09:04:09.146Z,20.92
2022-11-27T09:06:37.217Z,21.45
2022-11-27T09:09:06.867Z,24.92
2022-11-27T09:11:37.218Z,25.23
2022-11-27T09:14:06.033Z,26.10
2022-11-27T09:16:34.116Z,20.27
2022-11-27T09:19:02.446Z,21.85
2022-11-27T09:21:31.491Z,25.10
2022-11-27T09:24:00.624Z,26.50
2022-11-27T09:26:30.236Z,26.67
2022-11-27T09:29:00.208Z,30.00
2022-11-27T09:31:28.297Z,30.05
2022-11-27T09:33:56.176Z,29.83
2022-11-27T09:36:26.503Z,28.77
2022-11-27T09:38:54.771Z,28.58
2022-11-27T09:41:40.018Z,28.92
2022-11-27T09:44:30.320Z,29.42
2022-11-27T09:47:01.068Z,28.17
2022-11-27T09:49:37.814Z,26.38
2022-11-27T09:52:11.033Z,27.73
2022-11-27T09:54:47.997Z,28.77
2022-11-27T09:57:30.319Z,28.45
2022-11-27T10:00:03.958Z,29.65
2022-11-27T10:02:34.380Z,26.90
2022-11-27T10:05:13.734Z,28.08
2022-11-27T10:08:06.743Z,26.67
2022-11-27T10:10:41.944Z,29.67
2022-11-27T10:13:23.394Z,30.25
2022-11-27T10:15:56.911Z,31.30
2022-11-27T10:18:33.768Z,31.15
2022-11-27T10:21:08.494Z,32.70
2022-11-27T10:23:47.885Z,28.80
2022-11-27T10:26:20.222Z,29.38
2022-11-27T10:28:56.385Z,29.63
2022-11-27T10:31:34.075Z,29.75
2022-11-27T10:34:05.540Z,27.48
2022-11-27T10:36:40.128Z,31.35
2022-11-27T10:39:14.994Z,30.80
2022-11-27T10:41:50.007Z,27.63
2022-11-27T10:44:28.038Z,28.42
2022-11-27T10:47:02.409Z,30.85
2022-11-27T10:49:30.440Z,30.15
2022-11-27T10:51:58.618Z,29.05
2022-11-27T10:54:29.546Z,29.75
2022-11-27T10:57:09.163Z,29.80
2022-11-27T10:59:43.741Z,29.75
2022-11-27T11:06:11.624Z,30.42
2022-11-27T11:08:18.680Z,30.90
2022-11-27T11:10:53.173Z,28.55
2022-11-27T11:13:22.965Z,28.80
2022-11-27T11:15:53.922Z,27.40
2022-11-27T11:18:23.772Z,28.50
2022-11-27T11:20:55.644Z,31.38
2022-11-27T11:23:30.838Z,32.50
2022-11-27T11:26:02.811Z,29.70
2022-11-27T11:28:36.517Z,29.80
2022-11-27T11:31:10.525Z,32.42
2022-11-27T11:33:49.380Z,31.15
2022-11-27T11:36:18.737Z,29.33
2022-11-27T11:38:48.379Z,32.42
2022-11-27T11:41:18.170Z,28.25
2022-11-27T11:43:59.215Z,27.88
2022-11-27T11:46:29.985Z,28.05
2022-11-27T11:49:00.526Z,28.90
2022-11-27T11:51:45.768Z,25.27
2022-11-27T11:54:25.274Z,27.02
2022-11-27T11:56:53.994Z,28.65
2022-11-27T11:59:28.726Z,28.52
2022-11-27T12:02:20.890Z,29.67
2022-11-27T12:05:21.538Z,31.55
2022-11-27T12:08:08.007Z,28.83
2022-11-27T12:10:47.027Z,31.27
2022-11-27T12:13:29.042Z,30.58
2022-11-27T12:16:07.638Z,30.15
2022-11-27T12:18:46.554Z,34.72
2022-11-27T12:21:16.239Z,34.33
2022-11-27T12:24:04.473Z,33.35
2022-11-27T12:26:44.318Z,33.65
2022-11-27T12:29:34.509Z,33.03
2022-11-27T12:32:20.061Z,32.72
2022-11-27T12:35:04.330Z,32.35
2022-11-27T12:37:50.077Z,33.05
2022-11-27T12:40:36.554Z,34.10
2022-11-27T12:43:15.893Z,35.05
2022-11-27T12:45:48.937Z,30.42
2022-11-27T12:48:22.479Z,31.13
2022-11-27T12:50:54.848Z,33.17
2022-11-27T12:56:04.254Z,31.65
2022-11-27T12:58:34.881Z,33.10
2022-11-27T13:01:07.150Z,32.05
2022-11-27T13:03:43.185Z,30.10
2022-11-27T13:06:13.287Z,32.42
2022-11-27T13:08:52.284Z,32.00
2022-11-27T13:11:27.442Z,32.58
2022-11-27T13:13:59.593Z,32.25
2022-11-27T13:16:33.074Z,32.03
2022-11-27T13:19:07.346Z,33.10
2022-11-27T13:21:37.096Z,32.63
2022-11-27T13:24:06.017Z,32.40
2022-11-27T13:26:40.021Z,29.50
2022-11-27T13:29:17.036Z,30.17
2022-11-27T13:31:46.225Z,29.48
2022-11-27T13:34:21.345Z,27.65
2022-11-27T13:36:58.248Z,29.17
2022-11-27T13:39:29.373Z,27.65
2022-11-27T13:42:08.274Z,28.23
2022-11-27T13:44:40.781Z,28.80
2022-11-27T13:47:14.525Z,27.88
2022-11-27T13:49:43.490Z,27.10
2022-11-27T13:52:13.883Z,26.88
2022-11-27T13:54:53.569Z,27.83
2022-11-27T13:57:24.317Z,28.13
2022-11-27T14:00:00.513Z,31.38
2022-11-27T14:02:41.515Z,26.95
2022-11-27T14:05:10.503Z,29.55
2022-11-27T14:07:42.377Z,29.50
2022-11-27T14:10:14.535Z,28.45
2022-11-27T14:12:54.529Z,31.33
2022-11-27T14:15:25.539Z,29.10
2022-11-27T14:18:05.095Z,28.23
2022-11-27T14:20:36.290Z,29.05
2022-11-27T14:23:13.222Z,29.65
2022-11-27T14:25:42.025Z,31.05
2022-11-27T14:28:16.483Z,27.58
2022-11-27T14:30:48.363Z,26.25
2022-11-27T14:33:21.682Z,23.13
2022-11-27T14:35:50.956Z,24.90
2022-11-27T14:38:18.906Z,28.70
2022-11-27T14:40:47.368Z,28.90
2022-11-27T14:43:23.762Z,29.98
2022-11-27T14:45:54.023Z,31.58
2022-11-27T14:48:23.946Z,32.17
2022-11-27T14:50:53.127Z,30.67
2022-11-27T14:53:23.651Z,33.53
2022-11-27T14:55:56.022Z,33.90
2022-11-27T15:00:57.807Z,32.10
2022-11-27T15:03:26.819Z,30.77
2022-11-27T15:05:58.466Z,33.60
2022-11-27T15:08:27.183Z,33.45
2022-11-27T15:10:57.405Z,30.80
2022-11-27T15:13:29.282Z,32.97
2022-11-27T15:16:01.809Z,34.45
2022-11-27T15:18:32.225Z,38.72
2022-11-27T15:21:00.700Z,37.25
2022-11-27T15:23:30.422Z,40.95
2022-11-27T15:26:15.881Z,38.53
2022-11-27T15:28:53.068Z,41.45
2022-11-27T15:31:32.736Z,40.88
2022-11-27T15:34:04.040Z,40.17
2022-11-27T15:36:42.913Z,39.03
2022-11-27T15:39:21.161Z,37.22
2022-11-27T15:41:57.023Z,35.85
2022-11-27T15:44:27.724Z,33.80
2022-11-27T15:46:57.339Z,31.85
2022-11-27T15:49:25.537Z,28.27
2022-11-27T15:51:53.587Z,32.42
2022-11-27T15:54:21.547Z,32.00
2022-11-27T15:56:49.992Z,31.77
2022-11-27T15:59:20.577Z,33.75
2022-11-27T16:01:50.378Z,30.98
2022-11-27T16:04:18.432Z,29.27
2022-11-27T16:06:46.333Z,31.55
2022-11-27T16:09:14.401Z,30.15
2022-11-27T16:11:42.488Z,30.75
2022-11-27T16:14:10.498Z,29.70
2022-11-27T16:16:38.713Z,29.27
2022-11-27T16:19:08.216Z,29.15
2022-11-27T16:21:36.600Z,29.63
2022-11-27T16:24:07.579Z,25.95
2022-11-27T16:26:36.911Z,27.45
2022-11-27T16:29:04.956Z,28.67
2022-11-27T16:31:33.173Z,28.48
2022-11-27T16:34:02.018Z,25.35
2022-11-27T16:36:31.290Z,24.15
2022-11-27T16:38:59.608Z,21.90
2022-11-27T16:41:27.884Z,21.45
2022-11-27T16:43:57.747Z,22.63
2022-11-27T16:46:27.668Z,21.80
2022-11-27T16:48:56.925Z,20.35
2022-11-27T16:51:26.331Z,23.85
2022-11-27T16:53:57.601Z,25.30
2022-11-27T16:56:28.142Z,27.05
2022-11-27T16:59:02.261Z,27.25
2022-11-27T17:01:34.326Z,29.98
2022-11-27T17:04:03.633Z,29.75
2022-11-27T17:06:33.158Z,30.45
2022-11-27T17:09:04.695Z,32.33
2022-11-27T17:11:34.459Z,33.43
2022-11-27T17:14:05.141Z,29.67
2022-11-27T17:16:33.308Z,30.17
2022-11-27T17:19:01.550Z,27.73
2022-11-27T17:21:32.035Z,28.80
2022-11-27T17:24:03.169Z,29.55
2022-11-27T17:26:32.483Z,30.42
2022-11-27T17:29:02.144Z,31.77
2022-11-27T17:31:32.787Z,32.20
2022-11-27T17:34:00.931Z,31.40
2022-11-27T17:36:36.602Z,32.35
2022-11-27T17:39:07.436Z,35.78
2022-11-27T17:41:35.944Z,37.22
2022-11-27T17:44:05.330Z,36.13
2022-11-27T17:46:34.357Z,33.47
2022-11-27T17:49:03.421Z,32.75
2022-11-27T17:51:33.013Z,35.55
2022-11-27T17:54:02.519Z,35.63
2022-11-27T17:56:32.136Z,36.35
2022-11-27T17:59:00.804Z,33.53
2022-11-27T18:01:30.068Z,37.72
2022-11-27T18:04:00.300Z,33.90
2022-11-27T18:06:28.406Z,34.45
2022-11-27T18:08:57.452Z,35.90
2022-11-27T18:11:28.002Z,35.60
2022-11-27T18:13:57.490Z,36.63
2022-11-27T18:16:29.163Z,38.03
2022-11-27T18:18:57.774Z,38.67
2022-11-27T18:21:27.182Z,38.78
2022-11-27T18:29:33.533Z,39.25
2022-11-27T18:32:01.474Z,37.70
2022-11-27T18:34:29.430Z,39.10
2022-11-27T18:37:00.851Z,39.88
2022-11-27T18:39:29.369Z,40.43
2022-11-27T18:41:57.291Z,40.92
2022-11-27T18:44:25.303Z,42.08
2022-11-27T18:46:54.833Z,41.78
2022-11-27T18:49:23.195Z,41.78
2022-11-27T18:51:51.727Z,41.83
2022-11-27T18:54:19.857Z,42.28
2022-11-27T18:56:47.861Z,43.47
2022-11-27T18:59:15.776Z,42.80
2022-11-27T19:01:43.812Z,41.25
2022-11-27T19:04:15.029Z,39.92
2022-11-27T19:06:43.435Z,41.40
2022-11-27T19:09:12.093Z,42.30
2022-11-27T19:11:42.994Z,42.72
2022-11-27T19:14:11.162Z,46.03
2022-11-27T19:16:43.901Z,44.20
2022-11-27T19:19:52.783Z,44.45
2022-11-27T19:22:03.279Z,47.88
2022-11-27T19:24:31.189Z,47.60
2022-11-27T19:26:59.140Z,47.00
2022-11-27T19:29:27.094Z,47.00
2022-11-27T19:31:58.147Z,46.70
2022-11-27T19:34:27.585Z,48.75
2022-11-27T19:36:56.323Z,48.40
2022-11-27T19:39:24.269Z,48.75
2022-11-27T19:41:52.305Z,49.33
2022-11-27T19:44:20.504Z,51.38
2022-11-27T19:46:48.416Z,50.42
2022-11-27T19:49:18.247Z,49.25
2022-11-27T19:51:48.244Z,49.90
2022-11-27T19:54:19.145Z,45.05
2022-11-27T19:56:47.113Z,44.97
2022-11-27T19:59:15.536Z,46.22
2022-11-27T20:01:43.791Z,49.28
2022-11-27T20:04:12.550Z,48.05
2022-11-27T20:06:41.156Z,49.03
2022-11-27T20:09:13.900Z,49.03
2022-11-27T20:11:41.862Z,50.00
2022-11-27T20:14:09.790Z,51.08
2022-11-27T20:16:38.161Z,48.85
2022-11-27T20:19:07.282Z,48.00
2022-11-27T20:21:35.527Z,49.95
2022-11-27T20:24:03.611Z,52.40
2022-11-27T20:26:36.172Z,53.55
2022-11-27T20:29:07.720Z,51.00
2022-11-27T20:31:38.397Z,49.17
2022-11-27T20:34:07.854Z,48.97
2022-11-27T20:36:39.588Z,50.13
2022-11-27T20:39:08.092Z,50.00
2022-11-27T20:41:37.691Z,48.25
2022-11-27T20:44:08.231Z,47.95
2022-11-27T20:46:36.194Z,47.13
2022-11-27T20:49:04.651Z,46.13
2022-11-27T20:51:34.397Z,48.08
2022-11-27T20:54:03.578Z,47.75
2022-11-27T20:56:32.349Z,49.83
2022-11-27T20:59:01.632Z,50.70
2022-11-27T21:01:31.937Z,51.40
2022-11-27T21:04:03.095Z,54.85
2022-11-27T21:06:33.292Z,53.38
2022-11-27T21:09:01.847Z,55.25
2022-11-27T21:11:31.493Z,56.17
2022-11-27T21:14:02.987Z,56.90
2022-11-27T21:16:34.235Z,58.17
2022-11-27T21:19:04.144Z,57.72
2022-11-27T21:21:32.354Z,57.42
2022-11-27T21:24:00.761Z,59.08
2022-11-27T21:26:29.166Z,61.85
2022-11-27T21:28:57.306Z,61.92
2022-11-27T21:31:27.816Z,56.25
2022-11-27T21:33:57.628Z,59.53
2022-11-27T21:36:28.529Z,59.03
2022-11-27T21:38:57.957Z,61.05
2022-11-27T21:41:26.540Z,60.35
2022-11-27T21:43:56.810Z,60.08
2022-11-27T21:46:26.971Z,60.72
2022-11-27T21:48:58.788Z,60.78
2022-11-27T21:51:27.851Z,65.60
2022-11-27T21:53:57.083Z,62.50
2022-11-27T21:56:27.669Z,61.22
2022-11-27T21:58:55.918Z,61.72
2022-11-27T22:01:27.218Z,63.45
2022-11-27T22:03:56.522Z,64.05
2022-11-27T22:06:26.978Z,65.45
2022-11-27T22:08:58.471Z,66.32
2022-11-27T22:11:30.267Z,67.67
2022-11-27T22:13:59.961Z,70.85
2022-11-27T22:16:31.377Z,69.68
2022-11-27T22:19:00.682Z,73.03
2022-11-27T22:21:29.893Z,71.95
2022-11-27T22:23:58.890Z,75.05
2022-11-27T22:26:27.073Z,72.50
2022-11-27T22:28:57.000Z,71.15
2022-11-27T22:31:27.280Z,73.40
2022-11-27T22:33:56.899Z,73.75
2022-11-27T22:36:26.807Z,71.97
2022-11-27T22:38:56.021Z,70.93
2022-11-27T22:41:26.558Z,75.78
2022-11-27T22:43:54.445Z,77.22
2022-11-27T22:46:25.284Z,75.25
2022-11-27T22:48:55.188Z,78.45
2022-11-27T22:51:24.959Z,83.57
2022-11-27T22:53:52.989Z,78.68
2022-11-27T22:56:20.956Z,80.63
2022-11-27T22:58:49.201Z,83.28
2022-11-27T23:01:19.122Z,83.07
2022-11-27T23:03:47.431Z,83.88
2022-11-27T23:06:16.773Z,85.28
2022-11-27T23:08:47.191Z,87.13
2022-11-27T23:11:16.976Z,86.65
2022-11-27T23:13:49.485Z,90.32
2022-11-27T23:16:18.779Z,92.88
2022-11-27T23:18:46.817Z,92.10
2022-11-27T23:21:16.952Z,93.68
2022-11-27T23:23:46.782Z,92.93
2022-11-27T23:26:18.446Z,93.82
2022-11-27T23:28:47.673Z,95.95
2022-11-27T23:31:33.057Z,93.95
2022-11-27T23:34:02.586Z,96.50
2022-11-27T23:36:31.437Z,96.93
2022-11-27T23:39:03.131Z,96.32
2022-11-27T23:41:32.110Z,94.32
2022-11-27T23:44:01.585Z,96.00
2022-11-27T23:46:30.699Z,98.82
2022-11-27T23:49:00.495Z,96.47
2022-11-27T23:51:30.141Z,93.32
2022-11-27T23:53:58.580Z,98.07
2022-11-27T23:56:29.868Z,99.43
2022-11-27T23:58:58.303Z,98.72
